Mr Thomas — WDD7163 — position and weather

sailwx.info

Track history (hours):
 
Tides and Currents Weather Stations Pressure Air Temp Water Temp Dewpoint Dewpoint Depression Visibility Wind Speed Wind Dir Waves Ship Positions

Mr Thomas

Owner: CENTRAL BOAT RENTALS, BERWICK, LA. More information available from US FCC via Universal Licensing System and Coast Guard Vessel Documentation Center.

Last reported at 2014-Nov-24 13:33 UTC. Time now 2014-Nov-25 23:04 UTC.
Position N 29°43' W 091°33'.

Length 21 m.

Type: Tug. MMSI: 367182730.

Date/timePositionNaut miles runAvg speedWind from/ knotsBaromVisibWave heightAir tempDewpointWater temp
2014-Nov-24 13:33N 29°43' W 091°33'7 6.8
2014-Nov-24 12:28N 29°39' W 091°25'7 7.5
2014-Nov-24 11:33N 29°39' W 091°17'4 4.0
2014-Nov-24 10:31N 29°41' W 091°13'0 0.4
2014-Nov-24 09:32N 29°41' W 091°13'0 0.0
2014-Nov-24 08:32N 29°41' W 091°13'1 0.8
2014-Nov-24 07:33N 29°40' W 091°14'8 7.6
2014-Nov-24 06:34N 29°39' W 091°23'7 7.1
2014-Nov-24 05:33N 29°42' W 091°30'  
2014-Nov-18 06:33N 29°39' W 091°24'6 5.8
2014-Nov-18 05:33N 29°39' W 091°18'4 4.0
2014-Nov-18 04:32N 29°41' W 091°13'0 0.1
2014-Nov-18 03:33N 29°41' W 091°13'0 0.1
2014-Nov-18 02:33N 29°41' W 091°13'0 0.1
2014-Nov-18 01:31N 29°41' W 091°13'0 0.0
2014-Nov-18 00:32N 29°41' W 091°13'1 0.5
2014-Nov-17 23:32N 29°40' W 091°14'0 0.0
2014-Nov-17 22:29N 29°40' W 091°14'0 0.0
2014-Nov-17 21:32N 29°40' W 091°14'0 0.5
2014-Nov-17 20:33N 29°41' W 091°13'0 0.2
2014-Nov-17 19:34N 29°41' W 091°13'2 1.6
2014-Nov-17 18:31N 29°39' W 091°12'3 3.4
2014-Nov-17 17:32N 29°41' W 091°09'0 0.0
2014-Nov-17 16:32N 29°41' W 091°09'0 0.0
2014-Nov-17 15:32N 29°41' W 091°09'0 0.0
2014-Nov-17 14:32N 29°41' W 091°09'0 0.0
2014-Nov-17 13:32N 29°41' W 091°09'0 0.0
2014-Nov-17 12:32N 29°41' W 091°09'0 0.0
2014-Nov-17 11:32N 29°41' W 091°09'0 0.0
2014-Nov-17 10:32N 29°41' W 091°09'0 0.0
2014-Nov-17 09:32N 29°41' W 091°09'0 0.0
2014-Nov-17 08:32N 29°41' W 091°09'0 0.0
2014-Nov-17 07:32N 29°41' W 091°09'0 0.0
2014-Nov-17 06:32N 29°41' W 091°09'0 0.0
2014-Nov-17 05:32N 29°41' W 091°09'0 0.0
2014-Nov-17 04:32N 29°41' W 091°09'0 0.0
2014-Nov-17 03:32N 29°41' W 091°09'0 0.0
2014-Nov-17 02:32N 29°41' W 091°09'0 0.0
2014-Nov-17 01:32N 29°41' W 091°09'0 0.0
2014-Nov-17 00:32N 29°41' W 091°09'0 0.0
2014-Nov-16 23:32N 29°41' W 091°09'0 0.0
2014-Nov-16 22:32N 29°41' W 091°09'0 0.0
2014-Nov-16 21:29N 29°41' W 091°09'0 0.0
2014-Nov-16 20:32N 29°41' W 091°09'0 0.0
2014-Nov-16 19:32N 29°41' W 091°09'0 0.0
2014-Nov-16 18:32N 29°41' W 091°09'0 0.0
2014-Nov-16 17:32N 29°41' W 091°09'0 0.0
2014-Nov-16 16:32N 29°41' W 091°09'0 0.0
2014-Nov-16 15:32N 29°41' W 091°09'0 0.0
2014-Nov-16 14:32N 29°41' W 091°09'0 0.0
2014-Nov-16 13:32N 29°41' W 091°09'2 2.3
2014-Nov-16 12:33N 29°41' W 091°11'2 1.7
2014-Nov-16 11:31N 29°41' W 091°13'0 0.0
2014-Nov-16 10:31N 29°41' W 091°13'0 0.0
2014-Nov-16 09:31N 29°41' W 091°13'0 0.0
2014-Nov-16 08:31N 29°41' W 091°13'0 0.0
2014-Nov-16 07:28N 29°41' W 091°13'0 0.0
2014-Nov-16 06:31N 29°41' W 091°13'0 0.0
2014-Nov-16 05:31N 29°41' W 091°13'0 0.0
2014-Nov-16 04:31N 29°41' W 091°13'0 0.0
2014-Nov-16 03:31N 29°41' W 091°13'0 0.0
2014-Nov-16 02:31N 29°41' W 091°13'0 0.0
2014-Nov-16 01:31N 29°41' W 091°13'0 0.0
2014-Nov-16 00:31N 29°41' W 091°13'0 0.0
2014-Nov-15 23:31N 29°41' W 091°13'0 0.0
2014-Nov-15 22:31N 29°41' W 091°13'0 0.0
2014-Nov-15 21:31N 29°41' W 091°13'0 0.0
2014-Nov-15 20:31N 29°41' W 091°13'0 0.0
2014-Nov-15 19:31N 29°41' W 091°13'0 0.0
2014-Nov-15 18:31N 29°41' W 091°13'0 0.0
2014-Nov-15 17:31N 29°41' W 091°13'0 0.0
2014-Nov-15 16:33N 29°41' W 091°13'0 0.0
2014-Nov-15 15:33N 29°41' W 091°13'0 0.0
2014-Nov-15 14:33N 29°41' W 091°13'0 0.0
2014-Nov-15 13:33N 29°41' W 091°13'0 0.0
2014-Nov-15 12:30N 29°41' W 091°13'0 0.0
2014-Nov-15 11:33N 29°41' W 091°13'0 0.0
2014-Nov-15 10:33N 29°41' W 091°13'0 0.0
2014-Nov-15 09:33N 29°41' W 091°13'0 0.0
2014-Nov-15 08:33N 29°41' W 091°13'0 0.0
2014-Nov-15 07:33N 29°41' W 091°13'0 0.0
2014-Nov-15 06:33N 29°41' W 091°13'0 0.0
2014-Nov-15 05:33N 29°41' W 091°13'0 0.0
2014-Nov-15 04:33N 29°41' W 091°13'1 0.8
2014-Nov-15 03:34N 29°40' W 091°14'0 0.2
2014-Nov-15 02:32N 29°40' W 091°14'5 5.4
2014-Nov-15 01:33N 29°35' W 091°14'7 7.5
2014-Nov-15 00:33N 29°28' W 091°17'  
Track history (hours):
 
Tides and Currents Weather Stations Pressure Air Temp Water Temp Dewpoint Dewpoint Depression Visibility Wind Speed Wind Dir Waves Ship Positions

Mr Thomas

Owner: CENTRAL BOAT RENTALS, BERWICK, LA. More information available from US FCC via Universal Licensing System and Coast Guard Vessel Documentation Center.

Last reported at 2014-Nov-24 13:33 UTC. Time now 2014-Nov-25 23:04 UTC.
Position N 29°43' W 091°33'.

Length 21 m.

Type: Tug. MMSI: 367182730.

Date/timePositionNaut miles runAvg speedWind from/ knotsBaromVisibWave heightAir tempDewpointWater temp
2014-Nov-24 13:33N 29°43' W 091°33'7 6.8
2014-Nov-24 12:28N 29°39' W 091°25'7 7.5
2014-Nov-24 11:33N 29°39' W 091°17'4 4.0
2014-Nov-24 10:31N 29°41' W 091°13'0 0.4
2014-Nov-24 09:32N 29°41' W 091°13'0 0.0
2014-Nov-24 08:32N 29°41' W 091°13'1 0.8
2014-Nov-24 07:33N 29°40' W 091°14'8 7.6
2014-Nov-24 06:34N 29°39' W 091°23'7 7.1
2014-Nov-24 05:33N 29°42' W 091°30'  
2014-Nov-18 06:33N 29°39' W 091°24'6 5.8
2014-Nov-18 05:33N 29°39' W 091°18'4 4.0
2014-Nov-18 04:32N 29°41' W 091°13'0 0.1
2014-Nov-18 03:33N 29°41' W 091°13'0 0.1
2014-Nov-18 02:33N 29°41' W 091°13'0 0.1
2014-Nov-18 01:31N 29°41' W 091°13'0 0.0
2014-Nov-18 00:32N 29°41' W 091°13'1 0.5
2014-Nov-17 23:32N 29°40' W 091°14'0 0.0
2014-Nov-17 22:29N 29°40' W 091°14'0 0.0
2014-Nov-17 21:32N 29°40' W 091°14'0 0.5
2014-Nov-17 20:33N 29°41' W 091°13'0 0.2
2014-Nov-17 19:34N 29°41' W 091°13'2 1.6
2014-Nov-17 18:31N 29°39' W 091°12'3 3.4
2014-Nov-17 17:32N 29°41' W 091°09'0 0.0
2014-Nov-17 16:32N 29°41' W 091°09'0 0.0
2014-Nov-17 15:32N 29°41' W 091°09'0 0.0
2014-Nov-17 14:32N 29°41' W 091°09'0 0.0
2014-Nov-17 13:32N 29°41' W 091°09'0 0.0
2014-Nov-17 12:32N 29°41' W 091°09'0 0.0
2014-Nov-17 11:32N 29°41' W 091°09'0 0.0
2014-Nov-17 10:32N 29°41' W 091°09'0 0.0
2014-Nov-17 09:32N 29°41' W 091°09'0 0.0
2014-Nov-17 08:32N 29°41' W 091°09'0 0.0
2014-Nov-17 07:32N 29°41' W 091°09'0 0.0
2014-Nov-17 06:32N 29°41' W 091°09'0 0.0
2014-Nov-17 05:32N 29°41' W 091°09'0 0.0
2014-Nov-17 04:32N 29°41' W 091°09'0 0.0
2014-Nov-17 03:32N 29°41' W 091°09'0 0.0
2014-Nov-17 02:32N 29°41' W 091°09'0 0.0
2014-Nov-17 01:32N 29°41' W 091°09'0 0.0
2014-Nov-17 00:32N 29°41' W 091°09'0 0.0
2014-Nov-16 23:32N 29°41' W 091°09'0 0.0
2014-Nov-16 22:32N 29°41' W 091°09'0 0.0
2014-Nov-16 21:29N 29°41' W 091°09'0 0.0
2014-Nov-16 20:32N 29°41' W 091°09'0 0.0
2014-Nov-16 19:32N 29°41' W 091°09'0 0.0
2014-Nov-16 18:32N 29°41' W 091°09'0 0.0
2014-Nov-16 17:32N 29°41' W 091°09'0 0.0
2014-Nov-16 16:32N 29°41' W 091°09'0 0.0
2014-Nov-16 15:32N 29°41' W 091°09'0 0.0
2014-Nov-16 14:32N 29°41' W 091°09'0 0.0
2014-Nov-16 13:32N 29°41' W 091°09'2 2.3
2014-Nov-16 12:33N 29°41' W 091°11'2 1.7
2014-Nov-16 11:31N 29°41' W 091°13'0 0.0
2014-Nov-16 10:31N 29°41' W 091°13'0 0.0
2014-Nov-16 09:31N 29°41' W 091°13'0 0.0
2014-Nov-16 08:31N 29°41' W 091°13'0 0.0
2014-Nov-16 07:28N 29°41' W 091°13'0 0.0
2014-Nov-16 06:31N 29°41' W 091°13'0 0.0
2014-Nov-16 05:31N 29°41' W 091°13'0 0.0
2014-Nov-16 04:31N 29°41' W 091°13'0 0.0
2014-Nov-16 03:31N 29°41' W 091°13'0 0.0
2014-Nov-16 02:31N 29°41' W 091°13'0 0.0
2014-Nov-16 01:31N 29°41' W 091°13'0 0.0
2014-Nov-16 00:31N 29°41' W 091°13'0 0.0
2014-Nov-15 23:31N 29°41' W 091°13'0 0.0
2014-Nov-15 22:31N 29°41' W 091°13'0 0.0
2014-Nov-15 21:31N 29°41' W 091°13'0 0.0
2014-Nov-15 20:31N 29°41' W 091°13'0 0.0
2014-Nov-15 19:31N 29°41' W 091°13'0 0.0
2014-Nov-15 18:31N 29°41' W 091°13'0 0.0
2014-Nov-15 17:31N 29°41' W 091°13'0 0.0
2014-Nov-15 16:33N 29°41' W 091°13'0 0.0
2014-Nov-15 15:33N 29°41' W 091°13'0 0.0
2014-Nov-15 14:33N 29°41' W 091°13'0 0.0
2014-Nov-15 13:33N 29°41' W 091°13'0 0.0
2014-Nov-15 12:30N 29°41' W 091°13'0 0.0
2014-Nov-15 11:33N 29°41' W 091°13'0 0.0
2014-Nov-15 10:33N 29°41' W 091°13'0 0.0
2014-Nov-15 09:33N 29°41' W 091°13'0 0.0
2014-Nov-15 08:33N 29°41' W 091°13'0 0.0
2014-Nov-15 07:33N 29°41' W 091°13'0 0.0
2014-Nov-15 06:33N 29°41' W 091°13'0 0.0
2014-Nov-15 05:33N 29°41' W 091°13'0 0.0
2014-Nov-15 04:33N 29°41' W 091°13'1 0.8
2014-Nov-15 03:34N 29°40' W 091°14'0 0.2
2014-Nov-15 02:32N 29°40' W 091°14'5 5.4
2014-Nov-15 01:33N 29°35' W 091°14'7 7.5
2014-Nov-15 00:33N 29°28' W 091°17'  

Dump ship's entire track history